Time;durP1;ratioP1;P1;durP2;ratioP2;P2;SDS_P1;SDS_P2;PMS_P1;PMS_P2;Temp;Humidity;BMP_temperature;BMP_pressure;BME280_temperature;BME280_humidity;BME280_pressure;Samples;Min_cycle;Max_cycle;Signal;HPM_P1;HPM_P2
2021/03/13 00:01:23;;;;;;;2.67;1.20;;;8.10;99.90;;;;;;5048289;28;20063;-61
2021/03/13 00:03:49;;;;;;;3.58;1.05;;;8.10;99.90;;;;;;5050464;28;20033;-61
2021/03/13 00:06:18;;;;;;;2.67;1.33;;;8.20;99.90;;;;;;5051840;28;20048;-62
2021/03/13 00:08:44;;;;;;;2.67;1.15;;;8.20;99.90;;;;;;5048288;28;20041;-61
2021/03/13 00:11:11;;;;;;;5.57;2.25;;;8.10;99.90;;;;;;5049739;28;20041;-62
2021/03/13 00:13:38;;;;;;;5.00;2.47;;;8.20;99.90;;;;;;5048739;28;20037;-61
2021/03/13 00:16:06;;;;;;;7.57;3.08;;;8.10;99.90;;;;;;5044981;28;20182;-61
2021/03/13 00:18:34;;;;;;;8.52;3.60;;;8.10;99.90;;;;;;5031586;28;20045;-62
2021/03/13 00:21:03;;;;;;;4.05;1.65;;;8.10;99.90;;;;;;5042797;28;20049;-62
2021/03/13 00:23:30;;;;;;;5.97;2.13;;;8.00;99.90;;;;;;5048627;28;20163;-62
2021/03/13 00:25:56;;;;;;;3.70;1.20;;;7.90;99.90;;;;;;5022845;28;20063;-61
2021/03/13 00:28:23;;;;;;;4.97;1.55;;;7.90;99.90;;;;;;5048009;28;20562;-62
2021/03/13 00:30:50;;;;;;;2.80;1.75;;;7.80;99.90;;;;;;5032363;28;20048;-61
2021/03/13 00:33:19;;;;;;;3.45;1.00;;;7.70;99.90;;;;;;5050363;28;20047;-61
2021/03/13 00:35:48;;;;;;;3.25;1.10;;;7.70;99.90;;;;;;5050036;28;20041;-61
2021/03/13 00:38:15;;;;;;;5.53;1.27;;;7.70;99.90;;;;;;5052372;28;20488;-61
2021/03/13 00:40:44;;;;;;;4.28;1.15;;;7.70;99.90;;;;;;5051662;28;20052;-61
2021/03/13 00:43:14;;;;;;;3.05;1.20;;;7.60;99.90;;;;;;5069382;28;20380;-61
2021/03/13 00:45:42;;;;;;;4.38;1.17;;;7.50;99.90;;;;;;5064500;28;20037;-62
2021/03/13 00:48:09;;;;;;;5.05;1.70;;;7.50;99.90;;;;;;5070779;28;20051;-62
2021/03/13 00:50:38;;;;;;;3.35;1.23;;;7.50;99.90;;;;;;5074249;28;20036;-61
2021/03/13 00:53:05;;;;;;;4.22;1.20;;;7.40;99.90;;;;;;5052665;28;20048;-61
2021/03/13 00:55:33;;;;;;;2.90;1.38;;;7.40;99.90;;;;;;5068979;28;20040;-61
2021/03/13 00:58:04;;;;;;;2.70;1.05;;;7.40;99.90;;;;;;5052328;28;20057;-62
2021/03/13 01:00:55;;;;;;;4.22;1.40;;;7.40;99.90;;;;;;5051125;28;20059;-62
2021/03/13 01:03:25;;;;;;;4.18;1.48;;;7.30;99.90;;;;;;5071351;28;20491;-61
2021/03/13 01:05:52;;;;;;;5.40;1.33;;;7.30;99.90;;;;;;5052547;28;20060;-62
2021/03/13 01:08:20;;;;;;;4.50;1.60;;;7.20;99.90;;;;;;5052248;28;20508;-62
2021/03/13 01:10:57;;;;;;;5.00;1.70;;;7.20;99.90;;;;;;5053054;28;20052;-61
2021/03/13 01:13:30;;;;;;;3.97;2.22;;;7.20;99.90;;;;;;5069607;28;20040;-62
2021/03/13 01:15:59;;;;;;;5.22;1.80;;;7.10;99.90;;;;;;5047940;28;20045;-61
2021/03/13 01:18:26;;;;;;;9.32;2.95;;;7.20;99.90;;;;;;5049411;28;20513;-62
2021/03/13 01:20:52;;;;;;;4.32;1.65;;;7.20;99.90;;;;;;5079293;28;20048;-61
2021/03/13 01:23:26;;;;;;;4.40;1.35;;;7.20;99.90;;;;;;5049969;28;20049;-61
2021/03/13 01:25:53;;;;;;;4.72;1.60;;;7.20;99.90;;;;;;5042905;28;20135;-62
2021/03/13 01:28:19;;;;;;;3.85;1.63;;;7.10;99.90;;;;;;5051118;28;20044;-62
2021/03/13 01:31:01;;;;;;;4.57;1.70;;;7.20;99.90;;;;;;5059814;28;20112;-61
2021/03/13 01:33:31;;;;;;;3.83;2.22;;;7.10;99.90;;;;;;5043921;28;20098;-62
2021/03/13 01:35:59;;;;;;;6.55;1.80;;;7.10;99.90;;;;;;5050967;28;20618;-62
2021/03/13 01:38:28;;;;;;;6.07;2.00;;;7.10;99.90;;;;;;5052137;28;20147;-62
2021/03/13 01:40:55;;;;;;;7.97;2.60;;;7.00;99.90;;;;;;5039197;28;20059;-61
2021/03/13 01:43:22;;;;;;;9.57;4.72;;;7.00;99.90;;;;;;5048357;28;20759;-61
2021/03/13 01:45:49;;;;;;;12.32;4.57;;;7.00;99.90;;;;;;5052004;28;20055;-61
2021/03/13 01:48:18;;;;;;;7.60;3.33;;;6.90;99.90;;;;;;5052068;28;20045;-61
2021/03/13 01:50:46;;;;;;;11.10;3.13;;;6.90;99.90;;;;;;5074861;28;20553;-61
2021/03/13 01:53:13;;;;;;;7.53;2.53;;;6.80;99.90;;;;;;5043396;28;20044;-61
2021/03/13 01:55:40;;;;;;;8.48;2.92;;;6.80;99.90;;;;;;5045888;28;20045;-61
2021/03/13 01:58:10;;;;;;;6.60;2.28;;;6.70;99.90;;;;;;5036147;28;20056;-61
2021/03/13 02:00:47;;;;;;;6.40;2.13;;;6.70;99.90;;;;;;5050058;28;20048;-61
2021/03/13 02:03:16;;;;;;;6.40;2.20;;;6.60;99.90;;;;;;5045571;28;20515;-61
2021/03/13 02:05:46;;;;;;;6.45;2.13;;;6.50;99.90;;;;;;5045553;28;20052;-61
2021/03/13 02:08:25;;;;;;;3.92;1.75;;;6.40;99.90;;;;;;5060891;28;20041;-61
2021/03/13 02:11:18;;;;;;;4.35;1.80;;;6.40;99.90;;;;;;5063926;28;20520;-61
2021/03/13 02:14:26;;;;;;;5.45;1.77;;;6.40;99.90;;;;;;5067705;28;20043;-61
2021/03/13 02:17:25;;;;;;;6.57;2.10;;;6.30;99.90;;;;;;5068515;28;20051;-61
2021/03/13 02:20:13;;;;;;;8.00;2.45;;;6.30;99.90;;;;;;5071335;28;20565;-61
2021/03/13 02:22:45;;;;;;;5.43;2.08;;;6.20;99.90;;;;;;5050493;28;20052;-61
2021/03/13 02:26:14;;;;;;;5.95;2.22;;;6.20;99.90;;;;;;4988749;28;20046;-61
2021/03/13 02:29:26;;;;;;;5.65;1.58;;;6.10;99.90;;;;;;4976065;28;20062;-62
2021/03/13 02:32:02;;;;;;;6.85;2.40;;;6.10;99.90;;;;;;4978833;28;20212;-61
2021/03/13 02:34:33;;;;;;;5.05;2.13;;;6.10;99.90;;;;;;4969152;28;20055;-61
2021/03/13 02:37:23;;;;;;;4.78;2.15;;;6.00;99.90;;;;;;4992059;28;20049;-61
2021/03/13 02:39:54;;;;;;;8.93;2.03;;;6.00;99.90;;;;;;4993252;28;20050;-61
2021/03/13 02:42:23;;;;;;;4.93;1.85;;;6.00;99.90;;;;;;4991987;28;20052;-61
2021/03/13 02:44:51;;;;;;;5.93;1.92;;;5.90;99.90;;;;;;4981229;28;20044;-61
2021/03/13 02:47:25;;;;;;;7.07;2.42;;;5.80;99.90;;;;;;5004951;28;20100;-62
2021/03/13 02:49:59;;;;;;;5.03;2.22;;;5.80;99.90;;;;;;5004143;28;20084;-61
2021/03/13 02:52:33;;;;;;;6.65;2.67;;;5.80;99.90;;;;;;4989072;28;20042;-61
2021/03/13 02:55:05;;;;;;;;;;;5.80;99.90;;;;;;5000475;28;20129;-61
2021/03/13 02:57:34;;;;;;;5.55;1.92;;;5.70;99.90;;;;;;5003889;28;19926;-61
2021/03/13 03:00:05;;;;;;;5.53;2.10;;;5.70;99.90;;;;;;5031522;28;20119;-61
2021/03/13 03:02:35;;;;;;;7.25;2.67;;;5.70;99.90;;;;;;5046388;28;20045;-61
2021/03/13 03:05:04;;;;;;;8.88;3.03;;;5.70;99.90;;;;;;5065474;28;20063;-61
2021/03/13 03:07:33;;;;;;;5.05;2.20;;;5.70;99.90;;;;;;5050851;28;20048;-61
2021/03/13 03:10:09;;;;;;;5.90;2.22;;;5.70;99.90;;;;;;5050829;28;20139;-61
2021/03/13 03:12:37;;;;;;;6.10;2.35;;;5.70;99.90;;;;;;5053317;28;20047;-61
2021/03/13 03:15:06;;;;;;;9.23;3.20;;;5.70;99.90;;;;;;5053987;28;20156;-61
2021/03/13 03:17:35;;;;;;;6.32;2.65;;;5.70;99.90;;;;;;5045656;28;20060;-61
2021/03/13 03:20:06;;;;;;;6.07;2.40;;;5.70;99.90;;;;;;5054016;28;20070;-61
2021/03/13 03:22:36;;;;;;;5.75;2.25;;;5.70;99.90;;;;;;5071287;28;20040;-62
2021/03/13 03:25:10;;;;;;;5.70;2.10;;;5.60;99.90;;;;;;5053130;28;20048;-61
2021/03/13 03:27:52;;;;;;;7.43;2.45;;;5.50;99.90;;;;;;5071665;28;20043;-61
2021/03/13 03:30:29;;;;;;;4.53;2.35;;;5.50;99.90;;;;;;5054367;28;20094;-61
2021/03/13 03:33:01;;;;;;;5.28;2.72;;;5.50;99.90;;;;;;5053566;28;20047;-61
2021/03/13 03:35:31;;;;;;;5.95;2.45;;;5.50;99.90;;;;;;5052333;28;20140;-61
2021/03/13 03:38:00;;;;;;;6.65;2.88;;;5.50;99.90;;;;;;5047733;28;20178;-62
2021/03/13 03:40:30;;;;;;;6.78;2.67;;;5.50;99.90;;;;;;5054585;28;20439;-62
2021/03/13 03:43:15;;;;;;;5.85;2.63;;;5.50;99.90;;;;;;5044889;28;20059;-61
2021/03/13 03:45:52;;;;;;;8.15;2.78;;;5.40;99.90;;;;;;5069019;28;20049;-61
2021/03/13 03:48:23;;;;;;;7.30;2.72;;;5.40;99.90;;;;;;5042036;28;20164;-61
2021/03/13 03:51:00;;;;;;;6.75;3.13;;;5.40;99.90;;;;;;5055389;28;20544;-61
2021/03/13 03:53:39;;;;;;;7.20;3.15;;;5.40;99.90;;;;;;5048056;28;20037;-61
2021/03/13 03:56:07;;;;;;;7.68;3.17;;;5.30;99.90;;;;;;5070655;28;20036;-62
2021/03/13 03:58:41;;;;;;;8.48;3.45;;;5.30;99.90;;;;;;5069846;28;20063;-61
2021/03/13 04:01:08;;;;;;;8.18;3.72;;;5.30;99.90;;;;;;5071511;28;20071;-61
2021/03/13 04:03:43;;;;;;;6.88;2.85;;;5.30;99.90;;;;;;5052550;28;20040;-61
2021/03/13 04:06:12;;;;;;;6.38;2.92;;;5.20;99.90;;;;;;5052195;28;20053;-61
2021/03/13 04:08:44;;;;;;;6.60;2.97;;;5.10;99.90;;;;;;5071640;28;20036;-61
2021/03/13 04:11:14;;;;;;;6.93;2.42;;;5.10;99.90;;;;;;5068171;28;20119;-61
2021/03/13 04:13:43;;;;;;;4.07;2.30;;;5.00;99.90;;;;;;5077572;28;20048;-61
2021/03/13 04:16:13;;;;;;;5.88;2.35;;;5.00;99.90;;;;;;5052329;28;20049;-61
2021/03/13 04:18:40;;;;;;;5.72;2.70;;;4.90;99.90;;;;;;5071152;28;20044;-61
2021/03/13 04:21:07;;;;;;;7.95;3.55;;;4.90;99.90;;;;;;5052215;28;20056;-61
2021/03/13 04:23:41;;;;;;;7.43;3.22;;;4.90;99.90;;;;;;5071441;28;20098;-61
2021/03/13 04:26:07;;;;;;;7.18;3.08;;;4.90;99.90;;;;;;5067867;28;20060;-61
2021/03/13 04:28:34;;;;;;;7.05;2.42;;;4.90;99.90;;;;;;5069593;28;20484;-61
2021/03/13 04:31:03;;;;;;;7.05;2.90;;;4.90;99.90;;;;;;5052386;28;20043;-61
2021/03/13 04:33:33;;;;;;;7.45;2.47;;;4.90;99.90;;;;;;5053870;28;20060;-61
2021/03/13 04:36:00;;;;;;;8.98;2.88;;;4.90;99.90;;;;;;5070234;28;20558;-61
2021/03/13 04:38:27;;;;;;;7.15;2.40;;;4.90;99.90;;;;;;5071020;28;20051;-61
2021/03/13 04:40:55;;;;;;;6.18;2.80;;;4.90;99.90;;;;;;5071302;28;20622;-61
2021/03/13 04:43:24;;;;;;;6.45;2.58;;;4.80;99.90;;;;;;5044574;28;20049;-61
2021/03/13 04:45:56;;;;;;;5.90;2.65;;;4.80;99.90;;;;;;5068893;28;20544;-62
2021/03/13 04:48:23;;;;;;;6.97;2.50;;;4.80;99.90;;;;;;5051306;28;20434;-61
2021/03/13 04:50:50;;;;;;;5.95;2.40;;;4.70;99.90;;;;;;5052281;28;20090;-61
2021/03/13 04:53:16;;;;;;;5.57;2.55;;;4.70;99.90;;;;;;5053656;28;20045;-60
2021/03/13 04:55:43;;;;;;;7.05;2.53;;;4.60;99.90;;;;;;5069334;28;20479;-61
2021/03/13 04:58:09;;;;;;;5.97;2.35;;;4.60;99.90;;;;;;5068772;28;20060;-61
2021/03/13 05:00:36;;;;;;;5.18;2.50;;;4.60;99.90;;;;;;5070476;28;20037;-62
2021/03/13 05:03:03;;;;;;;4.07;2.20;;;4.60;99.90;;;;;;5067322;28;20094;-61
2021/03/13 05:05:33;;;;;;;9.02;2.40;;;4.70;99.90;;;;;;5069219;28;20726;-61
2021/03/13 05:08:00;;;;;;;6.30;2.88;;;4.70;99.90;;;;;;5066075;28;20040;-61
2021/03/13 05:10:27;;;;;;;6.80;3.10;;;4.70;99.90;;;;;;5069729;28;20056;-61
2021/03/13 05:12:54;;;;;;;9.80;4.30;;;4.60;99.90;;;;;;5050434;28;20814;-61
2021/03/13 05:15:23;;;;;;;9.63;3.25;;;4.70;99.90;;;;;;5054273;28;20048;-61
2021/03/13 05:17:50;;;;;;;5.43;2.67;;;4.70;99.90;;;;;;5072301;28;20044;-61
2021/03/13 05:20:17;;;;;;;7.68;2.70;;;4.70;99.90;;;;;;5046509;28;20663;-61
2021/03/13 05:22:48;;;;;;;6.05;2.13;;;4.70;99.90;;;;;;5064519;28;20511;-61
2021/03/13 05:25:15;;;;;;;7.35;2.30;;;4.70;99.90;;;;;;5049194;28;20044;-61
2021/03/13 05:27:42;;;;;;;5.65;2.50;;;4.60;99.90;;;;;;5068573;28;20993;-61
2021/03/13 05:30:10;;;;;;;6.18;2.30;;;4.70;99.90;;;;;;5068558;28;20041;-61
2021/03/13 05:32:37;;;;;;;7.97;2.67;;;4.70;99.90;;;;;;5068527;28;20094;-61
2021/03/13 05:35:06;;;;;;;7.78;2.85;;;4.70;99.90;;;;;;5047672;28;20040;-62
2021/03/13 05:37:33;;;;;;;5.97;2.30;;;4.70;99.90;;;;;;5030223;28;20499;-61
2021/03/13 05:39:59;;;;;;;7.13;2.67;;;4.70;99.90;;;;;;5070580;28;20044;-61
2021/03/13 05:42:27;;;;;;;5.35;2.40;;;4.70;99.90;;;;;;5066410;28;20052;-62
2021/03/13 05:44:54;;;;;;;6.25;2.80;;;4.70;99.90;;;;;;5069104;28;20699;-61
2021/03/13 05:47:21;;;;;;;58.03;15.10;;;4.70;99.90;;;;;;5050986;28;20110;-61
2021/03/13 05:50:01;;;;;;;319.95;63.03;;;4.60;99.90;;;;;;5068827;28;20119;-61
2021/03/13 05:52:32;;;;;;;88.40;23.40;;;4.50;99.90;;;;;;5072136;28;20060;-61
2021/03/13 05:54:59;;;;;;;57.08;18.98;;;4.60;99.90;;;;;;5070299;28;20045;-61
2021/03/13 05:57:26;;;;;;;34.28;13.50;;;4.60;99.90;;;;;;5071950;28;20044;-61
2021/03/13 05:59:53;;;;;;;10.75;5.53;;;4.70;99.90;;;;;;5068679;28;20052;-61
2021/03/13 06:02:20;;;;;;;6.95;2.47;;;4.80;99.90;;;;;;5048213;28;20048;-61
2021/03/13 06:04:50;;;;;;;5.90;2.58;;;4.80;99.90;;;;;;5047406;28;20051;-61
2021/03/13 06:07:26;;;;;;;5.22;2.20;;;4.90;99.90;;;;;;5070403;28;20040;-61
2021/03/13 06:09:53;;;;;;;6.25;2.15;;;5.00;99.90;;;;;;5057829;28;20061;-61
2021/03/13 06:12:21;;;;;;;8.48;3.15;;;5.00;99.90;;;;;;5067862;28;20033;-62
2021/03/13 06:14:48;;;;;;;7.65;3.28;;;5.00;99.90;;;;;;5050760;28;20040;-61
2021/03/13 06:17:16;;;;;;;9.85;3.72;;;5.10;99.90;;;;;;5053989;28;20514;-61
2021/03/13 06:19:51;;;;;;;11.60;3.92;;;5.20;99.90;;;;;;5069602;28;20487;-60
2021/03/13 06:22:37;;;;;;;18.13;7.03;;;5.20;99.90;;;;;;5067674;28;20052;-61
2021/03/13 06:25:24;;;;;;;12.85;4.32;;;5.30;99.90;;;;;;5067174;28;20044;-60
2021/03/13 06:28:02;;;;;;;39.13;14.73;;;5.30;99.90;;;;;;5074370;28;20041;-60
2021/03/13 06:30:34;;;;;;;38.15;15.35;;;5.30;99.90;;;;;;5074639;28;20036;-60
2021/03/13 06:33:17;;;;;;;39.38;14.45;;;5.30;99.90;;;;;;5056573;28;20529;-60
2021/03/13 06:35:44;;;;;;;53.17;21.30;;;5.30;99.90;;;;;;5073816;28;20418;-60
2021/03/13 06:38:21;;;;;;;13.43;6.13;;;5.40;99.90;;;;;;5054168;28;20052;-60
2021/03/13 06:40:49;;;;;;;8.70;3.80;;;5.50;99.90;;;;;;5070400;28;20510;-60
2021/03/13 06:43:28;;;;;;;9.60;3.55;;;5.60;99.90;;;;;;5072693;28;20786;-60
2021/03/13 06:46:06;;;;;;;10.25;4.03;;;5.70;99.90;;;;;;5051533;28;20055;-60
2021/03/13 06:48:39;;;;;;;12.27;6.95;;;5.80;99.90;;;;;;5071076;28;20484;-60
2021/03/13 06:51:30;;;;;;;11.13;4.45;;;5.90;99.90;;;;;;5036245;28;20044;-60
2021/03/13 06:54:05;;;;;;;18.92;6.68;;;5.90;99.90;;;;;;5055830;28;20048;-60
2021/03/13 06:56:38;;;;;;;12.52;4.95;;;6.10;99.90;;;;;;5065352;28;20048;-60
2021/03/13 06:59:38;;;;;;;15.32;6.88;;;6.20;99.90;;;;;;5061394;28;20051;-60
2021/03/13 07:02:09;;;;;;;22.05;7.55;;;6.20;99.90;;;;;;5038616;28;20060;-61
2021/03/13 07:04:42;;;;;;;18.67;7.57;;;6.40;99.90;;;;;;5053476;28;20439;-60
2021/03/13 07:07:11;;;;;;;17.38;5.75;;;6.50;99.90;;;;;;5071993;28;20051;-61
2021/03/13 07:09:52;;;;;;;8.98;3.92;;;6.50;99.90;;;;;;5020519;28;20094;-61
2021/03/13 07:12:24;;;;;;;8.82;4.40;;;6.50;99.90;;;;;;5053362;28;20091;-61
2021/03/13 07:14:52;;;;;;;10.80;4.75;;;6.60;99.90;;;;;;5070765;28;20044;-61
2021/03/13 07:17:20;;;;;;;14.07;5.00;;;6.80;99.90;;;;;;5054519;28;20486;-61
2021/03/13 07:19:47;;;;;;;20.08;8.45;;;6.80;99.90;;;;;;5073192;28;20064;-61
2021/03/13 07:22:14;;;;;;;9.82;4.13;;;6.90;99.90;;;;;;5072398;28;20053;-61
2021/03/13 07:24:42;;;;;;;7.90;4.10;;;7.00;99.90;;;;;;5073363;28;20045;-62
2021/03/13 07:27:10;;;;;;;14.95;4.90;;;7.00;99.90;;;;;;5038946;28;20093;-61
2021/03/13 07:29:40;;;;;;;26.58;10.05;;;7.10;99.90;;;;;;5063475;28;20048;-61
2021/03/13 07:32:15;;;;;;;26.45;9.98;;;7.20;99.90;;;;;;5054659;28;20053;-61
2021/03/13 07:34:42;;;;;;;15.07;4.75;;;7.30;99.90;;;;;;5072524;28;20032;-61
2021/03/13 07:37:16;;;;;;;7.72;2.92;;;7.30;99.90;;;;;;5067947;28;20099;-61
2021/03/13 07:39:49;;;;;;;4.97;2.35;;;7.50;99.90;;;;;;5056350;28;20147;-61
2021/03/13 07:42:17;;;;;;;;;;;7.50;99.90;;;;;;5071808;28;20052;-61
2021/03/13 07:44:44;;;;;;;4.53;1.85;;;7.60;99.90;;;;;;5047538;28;20450;-61
2021/03/13 07:47:16;;;;;;;5.20;2.10;;;7.70;99.90;;;;;;5072049;28;20037;-61
2021/03/13 07:49:43;;;;;;;8.95;2.53;;;7.80;99.90;;;;;;5073599;28;20090;-61
2021/03/13 07:52:12;;;;;;;14.00;7.20;;;7.90;99.90;;;;;;5044005;28;20102;-61
2021/03/13 07:54:45;;;;;;;77.28;26.27;;;7.90;99.90;;;;;;5052160;28;20047;-61
2021/03/13 07:57:15;;;;;;;51.13;16.95;;;8.10;99.90;;;;;;5051970;28;20053;-61
2021/03/13 07:59:52;;;;;;;13.65;4.30;;;8.20;99.90;;;;;;5053223;28;20060;-61
2021/03/13 08:02:31;;;;;;;69.40;22.48;;;8.20;99.90;;;;;;5068138;28;20039;-61
2021/03/13 08:05:06;;;;;;;48.58;13.80;;;8.40;99.90;;;;;;5074110;28;20032;-61
2021/03/13 08:08:06;;;;;;;179.43;54.45;;;8.40;99.90;;;;;;5034291;28;20057;-61
2021/03/13 08:10:53;;;;;;;45.80;18.23;;;8.50;99.90;;;;;;5053784;28;20403;-62
2021/03/13 08:13:25;;;;;;;8.63;4.57;;;8.60;99.90;;;;;;5052600;28;20141;-61
2021/03/13 08:16:05;;;;;;;4.90;2.40;;;8.70;99.90;;;;;;5071856;28;20244;-61
2021/03/13 08:18:46;;;;;;;6.05;3.17;;;8.80;99.90;;;;;;5070586;28;20044;-61
2021/03/13 08:21:19;;;;;;;6.72;2.28;;;8.90;99.90;;;;;;5055209;28;20127;-61
2021/03/13 08:23:59;;;;;;;6.32;2.22;;;9.00;99.90;;;;;;5054399;28;20507;-61
2021/03/13 08:26:34;;;;;;;4.50;1.73;;;9.10;99.90;;;;;;5052600;28;20388;-61
2021/03/13 08:29:06;;;;;;;3.00;0.98;;;9.30;99.90;;;;;;5042416;28;20472;-61
2021/03/13 08:31:38;;;;;;;3.88;1.58;;;9.30;99.90;;;;;;5057203;28;20938;-61
2021/03/13 08:34:05;;;;;;;2.55;1.15;;;9.40;99.40;;;;;;5039006;28;20504;-61
2021/03/13 08:36:46;;;;;;;2.85;1.13;;;9.60;99.20;;;;;;5063535;28;20044;-61
2021/03/13 08:39:14;;;;;;;4.43;1.10;;;9.60;98.40;;;;;;5058416;28;20044;-61
2021/03/13 08:41:43;;;;;;;4.80;0.82;;;9.70;97.40;;;;;;5054323;28;20383;-62
2021/03/13 08:44:18;;;;;;;5.15;3.20;;;9.80;96.50;;;;;;5070953;28;20048;-61
2021/03/13 08:46:59;;;;;;;5.47;2.15;;;9.90;95.90;;;;;;5068011;28;20044;-61
2021/03/13 08:49:27;;;;;;;3.47;1.30;;;9.90;95.30;;;;;;5064470;28;20038;-61
2021/03/13 08:52:09;;;;;;;3.65;1.02;;;10.00;95.80;;;;;;5053755;28;20131;-61
2021/03/13 08:54:42;;;;;;;5.32;2.15;;;10.10;94.70;;;;;;5071097;28;20032;-61
2021/03/13 08:57:09;;;;;;;7.57;1.95;;;10.20;94.30;;;;;;5069685;28;20040;-61
2021/03/13 08:59:37;;;;;;;9.95;5.13;;;10.40;93.50;;;;;;5068834;28;20040;-61
2021/03/13 09:02:16;;;;;;;9.57;4.95;;;10.40;92.00;;;;;;5050509;28;20055;-62
2021/03/13 09:04:51;;;;;;;3.60;1.60;;;10.50;91.80;;;;;;5071514;28;20059;-61
2021/03/13 09:07:24;;;;;;;2.65;0.90;;;10.50;91.20;;;;;;5051383;28;20063;-61
2021/03/13 09:09:51;;;;;;;;;;;10.70;90.90;;;;;;5073124;28;20044;-61
2021/03/13 09:12:20;;;;;;;2.40;0.93;;;10.80;90.80;;;;;;5053594;28;19966;-61
2021/03/13 09:14:52;;;;;;;0.90;0.40;;;11.00;90.20;;;;;;5069871;28;20040;-61
2021/03/13 09:17:21;;;;;;;3.03;0.57;;;11.10;88.90;;;;;;5069273;28;20037;-61
2021/03/13 09:19:50;;;;;;;2.25;0.60;;;11.10;87.20;;;;;;5071160;28;20036;-61
2021/03/13 09:22:21;;;;;;;1.70;1.02;;;11.20;87.00;;;;;;5070998;28;20484;-61
2021/03/13 09:25:15;;;;;;;5.50;2.28;;;11.30;86.60;;;;;;5049821;28;20048;-61
2021/03/13 09:27:45;;;;;;;1.65;0.50;;;11.50;86.90;;;;;;5054058;28;20056;-61
2021/03/13 09:30:23;;;;;;;1.83;0.60;;;11.60;83.00;;;;;;5060773;28;20071;-61
2021/03/13 09:32:51;;;;;;;3.10;0.60;;;11.60;82.40;;;;;;5039744;28;20044;-61
2021/03/13 09:35:21;;;;;;;2.20;0.68;;;11.80;82.30;;;;;;5067120;28;20471;-61
2021/03/13 09:37:48;;;;;;;1.80;0.45;;;11.80;80.90;;;;;;5042074;28;20058;-61
2021/03/13 09:40:17;;;;;;;4.35;1.38;;;11.90;79.60;;;;;;5052247;28;20098;-61
2021/03/13 09:42:45;;;;;;;2.97;0.70;;;12.00;79.30;;;;;;5053261;28;20102;-61
2021/03/13 09:45:15;;;;;;;1.58;0.68;;;12.10;78.60;;;;;;5067456;28;20045;-61
2021/03/13 09:47:54;;;;;;;2.80;0.32;;;12.20;77.70;;;;;;5070693;28;20499;-61
2021/03/13 09:50:28;;;;;;;1.70;0.50;;;12.30;77.00;;;;;;5070020;28;20043;-61
2021/03/13 09:52:56;;;;;;;3.60;0.73;;;12.40;76.00;;;;;;5069930;28;20047;-61
2021/03/13 09:55:25;;;;;;;1.90;0.57;;;12.50;74.60;;;;;;5071653;28;20090;-61
2021/03/13 09:57:52;;;;;;;2.50;0.57;;;12.50;75.00;;;;;;5070044;28;20051;-61
2021/03/13 10:00:33;;;;;;;4.07;1.50;;;12.50;73.90;;;;;;5069458;28;20048;-61
2021/03/13 10:03:01;;;;;;;3.88;1.58;;;12.60;73.80;;;;;;5069866;28;20439;-61
2021/03/13 10:05:30;;;;;;;2.15;0.88;;;12.60;72.90;;;;;;5070955;28;20071;-62
2021/03/13 10:08:03;;;;;;;6.07;2.28;;;12.80;73.50;;;;;;5039369;28;20033;-61
2021/03/13 10:10:30;;;;;;;4.40;0.77;;;12.80;71.90;;;;;;5052972;28;20041;-61
2021/03/13 10:13:03;;;;;;;4.25;0.60;;;12.80;71.40;;;;;;5068465;28;20047;-61
2021/03/13 10:15:30;;;;;;;;;;;12.80;71.00;;;;;;5035598;28;20797;-61
2021/03/13 10:18:03;;;;;;;6.18;1.35;;;12.80;70.40;;;;;;5065297;28;19927;-61
2021/03/13 10:20:38;;;;;;;2.67;0.73;;;12.70;69.50;;;;;;5052645;28;20124;-61
2021/03/13 10:23:18;;;;;;;3.03;0.82;;;12.70;70.80;;;;;;5056181;28;20041;-61
2021/03/13 10:26:03;;;;;;;2.83;1.25;;;12.70;72.20;;;;;;5047549;28;20052;-62
2021/03/13 10:28:36;;;;;;;2.38;0.65;;;12.90;72.20;;;;;;5079626;28;20493;-61
2021/03/13 10:31:06;;;;;;;5.63;0.50;;;13.10;70.40;;;;;;5070847;28;20048;-61
2021/03/13 10:33:34;;;;;;;2.55;0.55;;;13.30;69.70;;;;;;5062935;28;20048;-61
2021/03/13 10:36:01;;;;;;;3.63;0.75;;;13.40;68.70;;;;;;5063156;28;20044;-61
2021/03/13 10:38:38;;;;;;;2.13;0.47;;;13.50;68.30;;;;;;5067934;28;20043;-61
2021/03/13 10:41:14;;;;;;;2.20;0.70;;;13.60;67.80;;;;;;5052347;28;20056;-60
2021/03/13 10:43:46;;;;;;;1.73;0.60;;;13.70;65.70;;;;;;5067891;28;20048;-61
2021/03/13 10:46:26;;;;;;;3.38;0.82;;;13.90;67.80;;;;;;5061866;28;20055;-62
2021/03/13 10:49:04;;;;;;;3.65;0.80;;;13.90;66.90;;;;;;5065378;28;20562;-62
2021/03/13 10:51:41;;;;;;;2.15;0.80;;;14.10;67.50;;;;;;5069162;28;20400;-62
2021/03/13 10:54:24;;;;;;;3.35;0.60;;;14.10;67.30;;;;;;5044467;28;20040;-61
2021/03/13 10:56:51;;;;;;;1.92;0.70;;;14.20;66.10;;;;;;5068286;28;20046;-62
2021/03/13 10:59:30;;;;;;;1.40;0.50;;;14.20;66.30;;;;;;5069435;28;20059;-61
2021/03/13 11:01:57;;;;;;;0.90;0.30;;;14.30;66.10;;;;;;5041843;28;20063;-62
2021/03/13 11:04:24;;;;;;;1.33;0.30;;;14.40;65.20;;;;;;5063855;28;20068;-61
2021/03/13 11:06:54;;;;;;;3.67;0.40;;;14.50;62.90;;;;;;5063770;28;20052;-61
2021/03/13 11:09:24;;;;;;;1.08;0.32;;;14.70;62.60;;;;;;5065127;28;20123;-61
2021/03/13 11:11:51;;;;;;;1.70;0.30;;;14.70;63.00;;;;;;5037872;28;20052;-63
2021/03/13 11:14:18;;;;;;;0.80;0.30;;;14.80;62.10;;;;;;5064605;28;20046;-61
2021/03/13 11:16:45;;;;;;;1.08;0.50;;;14.90;63.00;;;;;;5072096;28;20814;-61
2021/03/13 11:19:12;;;;;;;2.88;0.57;;;14.90;62.60;;;;;;5048853;28;20130;-62
2021/03/13 11:21:39;;;;;;;1.20;0.28;;;15.00;63.00;;;;;;5074966;28;20044;-61
2021/03/13 11:24:06;;;;;;;1.85;0.40;;;15.20;62.00;;;;;;5047405;28;20151;-61
2021/03/13 11:26:32;;;;;;;1.88;0.20;;;15.30;58.40;;;;;;5076514;28;20043;-62
2021/03/13 11:28:59;;;;;;;1.58;0.50;;;15.40;59.20;;;;;;5058278;28;20053;-60
2021/03/13 11:31:25;;;;;;;2.55;0.50;;;15.50;59.70;;;;;;5049291;28;20040;-60
2021/03/13 11:33:55;;;;;;;0.95;0.43;;;15.60;58.50;;;;;;5034202;28;20075;-61
2021/03/13 11:36:21;;;;;;;1.90;0.30;;;15.80;57.20;;;;;;5048117;28;20504;-61
2021/03/13 11:38:48;;;;;;;1.45;0.30;;;15.80;56.80;;;;;;5072585;28;20041;-61
2021/03/13 11:41:17;;;;;;;1.38;0.45;;;15.80;56.80;;;;;;5067054;28;20072;-61
2021/03/13 11:43:44;;;;;;;2.40;0.68;;;15.80;55.30;;;;;;5074024;28;20101;-62
2021/03/13 11:46:19;;;;;;;4.70;1.15;;;15.80;56.40;;;;;;5043215;28;20414;-62
2021/03/13 11:49:02;;;;;;;1.30;0.60;;;15.70;57.00;;;;;;5061591;28;20134;-64
2021/03/13 11:51:29;;;;;;;2.20;0.35;;;15.50;57.10;;;;;;5063099;28;20645;-64
2021/03/13 11:53:55;;;;;;;3.00;0.80;;;15.80;57.20;;;;;;5051030;28;20059;-64
2021/03/13 11:56:22;;;;;;;5.50;1.50;;;16.00;56.10;;;;;;5068191;28;20496;-63
2021/03/13 11:58:51;;;;;;;2.47;0.63;;;16.10;54.90;;;;;;5054590;28;20149;-65
2021/03/13 12:01:20;;;;;;;2.60;0.60;;;16.10;55.20;;;;;;5066385;28;20055;-65
2021/03/13 12:03:55;;;;;;;1.65;0.50;;;16.20;56.20;;;;;;5056988;28;20152;-64
2021/03/13 12:06:26;;;;;;;5.13;1.23;;;16.30;56.20;;;;;;5049933;28;20039;-64
2021/03/13 12:09:00;;;;;;;2.17;0.60;;;16.50;55.40;;;;;;5040557;28;20116;-64
2021/03/13 12:11:27;;;;;;;3.05;0.50;;;16.60;54.20;;;;;;5068568;28;20125;-62
2021/03/13 12:13:54;;;;;;;1.38;0.32;;;16.80;53.60;;;;;;5050586;28;20048;-62
2021/03/13 12:16:24;;;;;;;1.95;0.35;;;17.00;52.20;;;;;;5062612;28;20123;-62
2021/03/13 12:18:52;;;;;;;1.75;0.30;;;17.10;50.40;;;;;;5047530;28;20052;-62
2021/03/13 12:21:21;;;;;;;1.42;0.40;;;17.30;50.50;;;;;;5052866;28;20044;-62
2021/03/13 12:23:47;;;;;;;0.85;0.30;;;17.60;49.60;;;;;;5046656;28;20068;-62
2021/03/13 12:26:14;;;;;;;2.15;0.40;;;17.80;48.40;;;;;;5072297;28;20047;-62
2021/03/13 12:28:40;;;;;;;1.10;0.30;;;17.90;47.80;;;;;;5062738;28;20098;-61
2021/03/13 12:31:07;;;;;;;2.20;0.30;;;18.00;48.00;;;;;;5067020;28;20399;-62
2021/03/13 12:33:34;;;;;;;1.45;0.30;;;18.10;47.80;;;;;;5068688;28;20825;-62
2021/03/13 12:36:00;;;;;;;0.70;0.20;;;18.30;45.50;;;;;;5063905;28;20106;-62
2021/03/13 12:38:27;;;;;;;3.78;0.75;;;18.50;46.40;;;;;;5044724;28;20137;-62
2021/03/13 12:41:05;;;;;;;0.93;0.20;;;18.50;47.10;;;;;;5049647;28;20053;-64
2021/03/13 12:43:32;;;;;;;1.70;0.45;;;18.90;46.70;;;;;;5065482;28;20040;-65
2021/03/13 12:45:59;;;;;;;0.70;0.30;;;19.20;46.60;;;;;;5064797;28;20036;-65
2021/03/13 12:48:27;;;;;;;4.53;0.60;;;19.40;46.60;;;;;;5030665;28;20064;-65
2021/03/13 12:50:55;;;;;;;2.65;0.20;;;19.50;46.20;;;;;;5065459;28;20059;-64
2021/03/13 12:53:22;;;;;;;1.45;0.25;;;19.90;44.80;;;;;;5030353;28;20415;-64
2021/03/13 12:55:49;;;;;;;1.75;0.45;;;20.30;42.40;;;;;;5046804;28;20052;-64
2021/03/13 12:58:15;;;;;;;1.50;0.30;;;20.30;42.50;;;;;;5047358;28;20128;-65
2021/03/13 13:00:42;;;;;;;1.83;0.38;;;20.40;43.20;;;;;;5046645;28;20040;-61
2021/03/13 13:03:10;;;;;;;2.33;0.43;;;19.80;44.90;;;;;;5065924;28;20056;-61
2021/03/13 13:05:37;;;;;;;3.40;0.50;;;20.30;44.20;;;;;;5034654;28;20060;-65
2021/03/13 13:08:04;;;;;;;1.38;0.30;;;20.50;42.10;;;;;;5038857;28;20074;-65
2021/03/13 13:10:33;;;;;;;2.15;0.40;;;20.40;42.60;;;;;;5064082;28;20041;-62
2021/03/13 13:13:00;;;;;;;1.23;0.40;;;21.00;42.10;;;;;;5063577;28;20044;-62
2021/03/13 13:15:26;;;;;;;1.02;0.40;;;21.30;40.80;;;;;;5061908;28;20415;-62